Latest Weather Observations for Holsworthy

IDN60801

Issued at 2:42 pm EDT Thursday 13 December 2018 (issued every 10 minutes, with the page automatically refreshed every 10 minutes)

About weather observations | Map of weather stations | Latest weather observations for NSW | Other Formats
Station Details ID: 066161 Name: HOLSWORTHY AERODROME AWS Lat: -33.99 Lon: 150.95 Height: 68.16 m
Data from the previous 72 hours. | See also: Recent months at Holsworthy
Date/Time
EDT
Temp
°C
App
Temp
°C
Dew
Point
°C
Rel
Hum
%
Delta-T
°C
Wind Press
QNH
hPa
Press
MSL
hPa
Rain since
9am
mm
Dir  Spd
km/h
Gust
km/h
Spd
kts
Gust
kts
13/02:30pm 28.4 27.6 19.3 57 5.9 ENE 22 30 12 16 1000.0 999.7 0.4
13/02:00pm 28.1 27.8 19.1 58 5.9 E 19 30 10 16 1000.5 1000.2 0.4
13/01:30pm 27.3 27.2 19.6 62 5.0 ESE 19 26 10 14 1000.6 1000.3 0.4
13/01:00pm 26.9 27.7 18.2 59 5.6 NE 11 19 6 10 1001.8 1001.5 0.4
13/12:30pm 27.1 27.1 18.1 58 5.7 NNE 15 20 8 11 1002.2 1001.9 0.4
13/12:00pm 26.5 27.7 19.9 67 4.3 NNE 13 19 7 10 1002.4 1002.1 0.4
13/11:30am 25.2 27.3 18.9 68 4.0 NNW 6 11 3 6 1002.4 1002.1 0.4
13/11:00am 23.9 26.1 19.2 75 3.0 NNW 6 9 3 5 1002.8 1002.5 0.4
13/10:30am 22.9 25.0 19.3 80 2.3 NE 7 9 4 5 1003.2 1002.9 0.4
13/10:00am 23.2 25.1 18.5 75 3.0 NE 6 13 3 7 1003.7 1003.4 0.0
13/09:30am 23.0 25.6 18.3 75 3.0 NNE 2 9 1 5 1004.4 1004.1 0.0
13/09:00am 22.7 25.5 18.9 79 2.4 N 2 7 1 4 1004.6 1004.3 3.2
13/08:37am 21.6 23.6 18.8 84 1.8 NE 6 9 3 5 1004.7 1004.4 3.2
13/08:30am 21.4 23.4 18.8 85 1.6 ENE 6 9 3 5 1004.7 1004.4 3.2
13/08:00am 21.3 23.3 19.2 88 1.3 E 7 11 4 6 1004.7 1004.4 3.2
13/07:58am 21.2 23.2 19.1 88 1.3 E 7 11 4 6 1004.7 1004.4 3.2
13/07:38am 20.7 22.9 19.5 93 0.8 E 7 9 4 5 1004.8 1004.5 3.2
13/07:30am 20.4 22.6 19.2 93 0.8 E 6 7 3 4 1005.0 1004.7 3.2
13/07:01am 20.0 22.6 19.2 95 0.5 S 4 7 2 4 1004.9 1004.6 3.2
13/07:00am 20.0 22.6 19.2 95 0.5 S 4 7 2 4 1004.9 1004.6 3.2
13/06:57am 20.0 22.2 19.2 95 0.5 S 6 7 3 4 1004.8 1004.5 3.2
13/06:30am 19.8 21.9 19.0 95 0.5 SW 6 7 3 4 1004.7 1004.4 3.2
13/06:05am 19.8 21.9 19.0 95 0.5 WNW 6 7 3 4 1004.8 1004.5 3.2
13/06:00am 19.8 22.2 18.8 94 0.6 NNW 4 7 2 4 1004.9 1004.6 3.2
13/05:30am 19.8 20.5 18.8 94 0.6 NE 13 20 7 11 1004.1 1003.8 3.2
13/05:00am 19.8 21.0 19.0 95 0.5 ENE 11 17 6 9 1004.0 1003.7 3.2
13/04:30am 19.8 21.3 18.8 94 0.6 ENE 9 11 5 6 1005.4 1005.1 3.2
13/04:00am 20.1 22.0 18.9 93 0.8 ENE 7 9 4 5 1006.5 1006.2 3.2
13/03:30am 20.3 22.1 18.8 91 0.9 ENE 7 9 4 5 1007.0 1006.7 3.0
13/03:00am 20.6 22.3 18.4 87 1.4 NE 7 9 4 5 1007.6 1007.3 2.6
13/02:30am 20.6 22.3 18.4 87 1.4 NE 7 9 4 5 1007.7 1007.4 2.6
13/02:00am 20.6 22.2 18.2 86 1.5 NE 7 13 4 7 1007.8 1007.5 2.6
13/01:30am 20.7 22.4 18.1 85 1.6 NE 6 9 3 5 1007.9 1007.6 2.6
13/01:00am 20.7 21.9 18.3 86 1.5 NE 9 13 5 7 1008.3 1008.0 2.6
13/12:43am 20.7 21.6 18.3 86 1.5 ENE 11 19 6 10 1008.5 1008.2 2.6
13/12:30am 20.7 21.6 18.3 86 1.5 ENE 11 19 6 10 1008.8 1008.5 2.6
13/12:00am 20.7 21.9 18.3 86 1.5 NNE 9 15 5 8 1009.8 1009.5 2.6
 
Date/Time
EDT
Temp
°C
App
Temp
°C
Dew
Point
°C
Rel
Hum
%
Delta-T
°C
Wind Press
QNH
hPa
Press
MSL
hPa
Rain since
9am
mm
Dir  Spd
km/h
Gust
km/h
Spd
kts
Gust
kts
12/11:30pm 20.7 21.8 18.1 85 1.6 NE 9 15 5 8 1010.0 1009.7 2.6
12/11:26pm 20.7 21.5 18.1 85 1.6 NE 11 15 6 8 1010.0 1009.7 2.6
12/11:00pm 20.8 21.1 17.8 83 1.9 NE 13 24 7 13 1010.0 1009.7 2.6
12/10:30pm 21.0 21.1 17.4 80 2.2 ENE 13 20 7 11 1010.8 1010.6 2.6
12/10:00pm 20.9 21.2 17.1 79 2.3 NE 11 19 6 10 1010.5 1010.3 2.6
12/09:30pm 21.0 21.3 17.0 78 2.4 NE 11 17 6 9 1011.0 1010.8 2.6
12/09:00pm 20.9 20.3 16.7 77 2.6 NE 15 24 8 13 1010.1 1009.8 2.6
12/08:30pm 21.0 20.1 16.8 77 2.6 NE 17 24 9 13 1010.4 1010.1 2.6
12/08:00pm 21.0 20.8 16.8 77 2.6 ENE 13 20 7 11 1010.8 1010.6 2.6
12/07:30pm 20.9 21.2 16.9 78 2.4 NE 11 19 6 10 1011.2 1011.0 2.6
12/07:00pm 20.9 20.8 16.9 78 2.4 ENE 13 19 7 10 1011.2 1011.0 2.6
12/06:30pm 21.1 21.3 16.7 76 2.7 NE 11 15 6 8 1011.5 1011.3 2.6
12/06:00pm 21.3 21.0 16.5 74 2.9 NE 13 19 7 10 1011.2 1011.0 2.6
12/05:30pm 21.4 21.2 16.6 74 2.9 NE 13 19 7 10 1011.3 1011.1 2.6
12/05:00pm 21.4 21.4 17.2 77 2.6 ENE 13 19 7 10 1011.5 1011.3 2.6
12/04:30pm 21.6 21.2 17.2 76 2.7 ENE 15 22 8 12 1011.9 1011.7 2.6
12/04:00pm 21.8 21.3 17.0 74 2.9 NE 15 20 8 11 1012.4 1012.2 2.6
12/03:30pm 21.8 22.3 17.4 76 2.7 ENE 11 17 6 9 1012.7 1012.5 2.6
12/03:00pm 21.2 21.8 16.8 76 2.7 NE 9 17 5 9 1013.0 1012.8 2.6
12/02:30pm 21.7 21.8 16.6 73 3.1 ENE 11 17 6 9 1013.7 1013.5 2.6
12/02:00pm 21.3 22.2 16.5 74 2.9 E 7 13 4 7 1014.1 1013.9 2.6
12/01:30pm 21.4 22.1 17.0 76 2.7 E 9 15 5 8 1014.1 1013.9 2.6
12/01:00pm 21.0 22.4 18.6 86 1.5 ESE 9 11 5 6 1014.6 1014.3 2.6
12/12:38pm 20.2 21.5 18.5 90 1.1 SE 9 13 5 7 1014.9 1014.6 2.6
12/12:31pm 19.7 21.2 18.0 90 1.1 ESE 7 9 4 5 1015.2 1014.9 2.6
12/12:30pm 19.9 21.6 18.4 91 0.9 ESE 7 9 4 5 1015.2 1014.9 2.6
12/12:00pm 19.8 22.0 18.3 91 0.9 NE 4 7 2 4 1015.7 1015.4 1.6
12/11:54am 19.6 21.6 17.9 90 1.0 NE 4 7 2 4 1015.8 1015.5 0.6
12/11:37am 19.5 20.8 17.6 89 1.2 ENE 7 11 4 6 1016.1 1015.8 0.4
12/11:30am 19.6 21.0 17.7 89 1.2 ENE 7 11 4 6 1016.0 1015.7 0.4
12/11:21am 19.5 20.0 17.5 88 1.2 NE 11 15 6 8 1016.0 1015.7 0.4
12/11:00am 21.1 21.0 16.9 77 2.6 E 13 24 7 13 1015.9 1015.6 0.0
12/10:30am 21.7 21.7 17.3 76 2.7 SE 13 17 7 9 1016.1 1015.8 0.0
12/10:00am 20.6 21.1 16.6 78 2.4 ESE 9 13 5 7 1016.4 1016.1 0.0
12/09:30am 20.5 20.9 16.3 77 2.5 ESE 9 11 5 6 1016.6 1016.3 0.0
12/09:00am 20.9 21.7 16.3 75 2.8 ESE 7 13 4 7 1017.0 1016.7 0.0
12/08:30am 20.2 21.4 16.8 81 2.1 SSW 6 11 3 6 1016.8 1016.5 0.0
12/08:00am 18.8 19.5 16.2 85 1.6 SW 7 9 4 5 1017.0 1016.7 0.0
12/07:30am 18.1 18.8 15.7 86 1.4 WSW 6 7 3 4 1016.8 1016.5 0.0
12/07:00am 17.8 18.5 15.6 87 1.3 SW 6 9 3 5 1016.5 1016.2 0.0
12/06:30am 17.4 18.4 15.4 88 1.2 NW 4 6 2 3 1016.4 1016.1 0.0
12/06:00am 17.7 18.2 15.5 87 1.3 SSE 7 9 4 5 1016.2 1015.9 0.0
12/05:30am 17.5 17.9 15.3 87 1.3 SE 7 9 4 5 1016.1 1015.8 0.0
12/05:00am 17.5 17.9 15.3 87 1.3 SSE 7 9 4 5 1015.9 1015.6 0.0
12/04:30am 17.8 17.8 15.2 85 1.5 SSE 9 11 5 6 1016.0 1015.7 0.0
12/04:00am 18.2 18.3 15.5 84 1.6 S 9 11 5 6 1016.3 1016.0 0.0
12/03:30am 17.9 18.3 15.3 85 1.5 S 7 9 4 5 1016.3 1016.0 0.0
12/03:00am 17.8 18.0 14.7 82 1.8 S 7 9 4 5 1016.5 1016.2 0.0
12/02:30am 18.5 18.9 15.2 81 1.9 SSW 7 9 4 5 1016.8 1016.5 0.0
12/02:00am 18.9 19.5 15.2 79 2.2 SSW 6 7 3 4 1017.1 1016.8 0.0
12/01:30am 19.0 19.6 15.3 79 2.2 SSW 6 7 3 4 1017.4 1017.1 0.0
12/01:00am 19.1 19.5 15.2 78 2.3 SSE 7 9 4 5 1017.4 1017.1 0.0
12/12:30am 19.0 19.0 15.1 78 2.3 SSW 9 11 5 6 1017.9 1017.6 0.0
12/12:00am 19.1 19.6 15.0 77 2.4 W 6 9 3 5 1018.4 1018.1 0.0
 
Date/Time
EDT
Temp
°C
App
Temp
°C
Dew
Point
°C
Rel
Hum
%
Delta-T
°C
Wind Press
QNH
hPa
Press
MSL
hPa
Rain since
9am
mm
Dir  Spd
km/h
Gust
km/h
Spd
kts
Gust
kts
11/11:30pm 19.3 19.9 15.2 77 2.4 SSW 6 7 3 4 1018.4 1018.1 0.0
11/11:00pm 19.5 20.1 15.2 76 2.5 SSE 6 7 3 4 1019.0 1018.7 0.0
11/10:30pm 19.5 20.7 15.0 75 2.6 ENE 2 6 1 3 1018.4 1018.1 0.0
11/10:00pm 19.5 19.8 15.0 75 2.6 ENE 7 11 4 6 1018.3 1018.0 0.0
11/09:30pm 19.7 19.5 14.7 73 2.9 SE 9 15 5 8 1018.2 1017.9 0.0
11/09:00pm 19.8 19.2 14.6 72 3.0 SSE 11 15 6 8 1018.6 1018.3 0.0
11/08:30pm 19.9 19.3 14.5 71 3.2 SE 11 15 6 8 1018.5 1018.2 0.0
11/08:00pm 20.1 19.5 14.5 70 3.3 SE 11 15 6 8 1018.4 1018.1 0.0
11/07:30pm 20.2 19.5 14.3 69 3.4 ESE 11 15 6 8 1018.0 1017.7 0.0
11/07:00pm 20.4 19.6 14.1 67 3.7 SE 11 15 6 8 1017.8 1017.5 0.0
11/06:30pm 20.8 20.1 14.2 66 3.8 ESE 11 19 6 10 1017.7 1017.4 0.0
11/06:00pm 20.6 19.4 14.0 66 3.8 ESE 13 17 7 9 1017.4 1017.1 0.0
11/05:30pm 20.9 19.2 13.6 63 4.2 SE 15 19 8 10 1017.8 1017.5 0.0
11/05:00pm 21.1 19.6 13.0 60 4.6 ESE 13 19 7 10 1017.7 1017.4 0.0
11/04:30pm 21.7 19.9 12.0 54 5.5 ESE 13 20 7 11 1017.9 1017.6 0.0
11/04:00pm 21.1 18.6 12.3 57 5.0 E 17 20 9 11 1018.1 1017.8 0.0
11/03:30pm 21.2 19.2 12.6 58 4.9 E 15 20 8 11 1018.2 1017.9 0.0
11/03:00pm 21.6 19.7 13.0 58 4.9 ESE 15 20 8 11 1018.4 1018.1 0.0
11/02:30pm 21.6 19.2 12.5 56 5.2 SE 17 20 9 11 1018.8 1018.5 0.0
11/02:00pm 21.9 19.7 12.2 54 5.5 ESE 15 24 8 13 1018.8 1018.5 0.0
11/01:30pm 22.3 19.7 12.0 52 5.8 SE 17 24 9 13 1019.0 1018.7 0.0
11/01:00pm 22.4 19.6 11.5 50 6.1 ESE 17 22 9 12 1019.3 1019.0 0.0
11/12:30pm 22.4 19.9 10.9 48 6.4 SE 15 20 8 11 1019.5 1019.2 0.0
11/12:00pm 23.0 20.0 10.8 46 6.8 SE 17 24 9 13 1019.4 1019.1 0.0
11/11:30am 23.4 20.6 10.1 43 7.3 SE 15 22 8 12 1019.5 1019.2 0.0
11/11:00am 23.4 21.4 11.5 47 6.7 SE 13 22 7 12 1019.4 1019.1 0.0
11/10:30am 22.8 20.2 10.6 46 6.7 SE 15 26 8 14 1019.8 1019.5 0.0
11/10:00am 22.4 20.3 12.4 53 5.7 S 15 22 8 12 1019.9 1019.6 0.0
11/09:30am 22.1 19.9 13.2 57 5.1 SE 17 20 9 11 1019.7 1019.4 0.0
11/09:00am 20.9 19.6 13.8 64 4.1 SSE 13 19 7 10 1019.7 1019.4 0.0
11/08:30am 20.9 19.9 14.5 67 3.8 SE 13 19 7 10 1019.7 1019.4 0.0
11/08:00am 20.4 19.4 14.7 70 3.3 SSE 13 22 7 12 1019.4 1019.1 0.0
11/07:30am 20.0 20.0 15.2 74 2.8 SSE 9 13 5 7 1019.3 1019.0 0.0
11/07:00am 19.8 19.7 15.0 74 2.8 SE 9 13 5 7 1018.8 1018.5 0.0
11/06:30am 19.5 19.6 15.4 77 2.4 SSE 9 15 5 8 1018.7 1018.4 0.0
11/06:00am 19.5 20.0 15.6 78 2.3 S 7 9 4 5 1018.3 1018.0 0.0
11/05:30am 19.4 19.6 15.7 79 2.2 S 9 11 5 6 1018.1 1017.8 0.0
11/05:00am 19.4 20.5 15.7 79 2.2 S 4 7 2 4 1018.0 1017.7 0.0
11/04:30am 19.4 20.0 15.9 80 2.1 SSE 7 11 4 6 1017.5 1017.2 0.0
11/04:00am 19.5 19.4 16.0 80 2.1 SSE 11 15 6 8 1017.3 1017.0 0.0
11/03:30am 19.6 21.3 16.1 80 2.1 SSW 2 9 1 5 1017.9 1017.6 0.0
11/03:00am 19.6 20.9 16.1 80 2.1 S 4 9 2 5 1018.0 1017.7 0.0
11/02:30am 19.7 20.6 16.0 79 2.2 S 6 11 3 6 1017.9 1017.6 0.0
11/02:00am 19.8 20.5 16.1 79 2.2 S 7 11 4 6 1018.2 1017.9 0.0
11/01:30am 19.8 20.8 16.3 80 2.1 WSW 6 9 3 5 1018.6 1018.3 0.0
11/01:00am 19.8 20.6 16.3 80 2.1 SSW 7 11 4 6 1018.7 1018.4 0.0
11/12:30am 19.9 20.7 16.3 80 2.2 S 7 11 4 6 1018.4 1018.1 0.0
11/12:00am 20.0 20.8 16.4 80 2.2 SSW 7 9 4 5 1019.1 1018.8 0.0
 
Date/Time
EDT
Temp
°C
App
Temp
°C
Dew
Point
°C
Rel
Hum
%
Delta-T
°C
Wind Press
QNH
hPa
Press
MSL
hPa
Rain since
9am
mm
Dir  Spd
km/h
Gust
km/h
Spd
kts
Gust
kts
10/11:30pm 20.1 20.8 16.1 78 2.4 SSW 7 11 4 6 1018.7 1018.4 0.0
10/11:00pm 20.3 20.3 16.3 78 2.4 S 11 17 6 9 1018.9 1018.6 0.0
10/10:30pm 20.4 19.7 16.4 78 2.4 S 15 22 8 12 1019.0 1018.7 0.0
10/10:00pm 20.6 19.9 16.4 77 2.5 S 15 28 8 15 1018.9 1018.6 0.0
10/09:30pm 20.8 19.2 16.6 77 2.5 SSE 20 33 11 18 1018.1 1017.8 0.0
10/09:00pm 20.9 18.9 16.5 76 2.7 SSE 22 32 12 17 1017.7 1017.4 0.0
10/08:30pm 21.1 18.2 17.1 78 2.5 SSE 28 43 15 23 1017.0 1016.7 0.0
10/08:01pm 21.3 18.3 17.7 80 2.2 SSE 30 50 16 27 1016.9 1016.6 0.0
10/08:00pm 21.3 18.3 17.7 80 2.2 SSE 30 46 16 25 1016.8 1016.5 0.0
10/07:30pm 21.8 19.3 18.0 79 2.4 SSE 28 41 15 22 1016.2 1015.9 0.0
10/07:00pm 22.5 20.6 17.6 74 3.0 SSE 24 35 13 19 1015.5 1015.2 0.0
10/06:30pm 23.1 21.3 15.9 64 4.4 SSE 20 32 11 17 1015.1 1014.8 0.0
10/06:00pm 24.2 22.5 15.7 59 5.2 SSE 19 28 10 15 1014.2 1014.0 0.0
10/05:30pm 26.6 26.3 18.2 60 5.3 SE 17 24 9 13 1014.0 1013.8 0.0
10/05:00pm 27.2 27.3 16.5 52 6.6 SE 11 17 6 9 1013.6 1013.4 0.0
10/04:30pm 27.0 28.2 16.9 54 6.3 SE 6 9 3 5 1013.7 1013.5 0.0
10/04:00pm 27.0 29.3 17.8 57 5.8 NE 2 9 1 5 1013.7 1013.5 0.0
10/03:30pm 25.7 27.1 17.9 62 4.9 N 7 11 4 6 1013.9 1013.7 0.0
10/03:00pm 24.8 27.0 19.2 71 3.6 NNW 6 7 3 4 1014.1 1013.9 0.0

Other Formats:

Comma delimited format used in spreadsheet applications
http://www.bom.gov.au/fwo/IDN60801/IDN60801.95761.axf

JavaScript Object Notation format (JSON) in row-major order
http://www.bom.gov.au/fwo/IDN60801/IDN60801.95761.json